sensor_id;sensor_type;location;lat;lon;timestamp;P1;durP1;ratioP1;P2;durP2;ratioP2
2404;SDS011;1213;43.206;27.922;2023-03-13T00:04:00;7.53;;;3.90;;
2404;SDS011;1213;43.206;27.922;2023-03-13T00:06:26;10.70;;;6.10;;
2404;SDS011;1213;43.206;27.922;2023-03-13T00:08:53;3.80;;;3.30;;
2404;SDS011;1213;43.206;27.922;2023-03-13T00:11:18;7.37;;;4.17;;
2404;SDS011;1213;43.206;27.922;2023-03-13T00:13:43;6.43;;;4.13;;
2404;SDS011;1213;43.206;27.922;2023-03-13T00:16:10;4.50;;;4.20;;
2404;SDS011;1213;43.206;27.922;2023-03-13T00:18:36;5.20;;;4.53;;
2404;SDS011;1213;43.206;27.922;2023-03-13T00:21:05;5.50;;;4.20;;
2404;SDS011;1213;43.206;27.922;2023-03-13T00:23:31;7.40;;;2.93;;
2404;SDS011;1213;43.206;27.922;2023-03-13T00:25:58;4.47;;;4.07;;
2404;SDS011;1213;43.206;27.922;2023-03-13T00:28:24;5.90;;;5.40;;
2404;SDS011;1213;43.206;27.922;2023-03-13T00:30:49;8.23;;;5.97;;
2404;SDS011;1213;43.206;27.922;2023-03-13T00:33:14;7.30;;;5.10;;
2404;SDS011;1213;43.206;27.922;2023-03-13T00:35:40;9.67;;;6.10;;
2404;SDS011;1213;43.206;27.922;2023-03-13T00:38:05;12.07;;;5.20;;
2404;SDS011;1213;43.206;27.922;2023-03-13T00:40:30;7.67;;;4.87;;
2404;SDS011;1213;43.206;27.922;2023-03-13T00:42:55;5.17;;;3.83;;
2404;SDS011;1213;43.206;27.922;2023-03-13T00:45:21;6.17;;;4.80;;
2404;SDS011;1213;43.206;27.922;2023-03-13T00:47:46;5.90;;;3.83;;
2404;SDS011;1213;43.206;27.922;2023-03-13T00:50:14;4.87;;;4.47;;
2404;SDS011;1213;43.206;27.922;2023-03-13T00:52:39;5.70;;;4.80;;
2404;SDS011;1213;43.206;27.922;2023-03-13T00:55:04;6.93;;;4.90;;
2404;SDS011;1213;43.206;27.922;2023-03-13T00:57:30;5.70;;;5.10;;
2404;SDS011;1213;43.206;27.922;2023-03-13T00:59:56;5.27;;;4.73;;
2404;SDS011;1213;43.206;27.922;2023-03-13T01:02:21;6.33;;;5.80;;
2404;SDS011;1213;43.206;27.922;2023-03-13T01:04:46;4.40;;;3.87;;
2404;SDS011;1213;43.206;27.922;2023-03-13T01:07:12;3.83;;;3.50;;
2404;SDS011;1213;43.206;27.922;2023-03-13T01:09:37;13.60;;;5.70;;
2404;SDS011;1213;43.206;27.922;2023-03-13T01:12:02;10.63;;;9.63;;
2404;SDS011;1213;43.206;27.922;2023-03-13T01:14:28;28.37;;;13.97;;
2404;SDS011;1213;43.206;27.922;2023-03-13T01:16:53;9.67;;;7.73;;
2404;SDS011;1213;43.206;27.922;2023-03-13T01:19:18;9.07;;;8.17;;
2404;SDS011;1213;43.206;27.922;2023-03-13T01:21:44;15.33;;;8.10;;
2404;SDS011;1213;43.206;27.922;2023-03-13T01:24:09;7.07;;;6.13;;
2404;SDS011;1213;43.206;27.922;2023-03-13T01:26:35;8.87;;;6.37;;
2404;SDS011;1213;43.206;27.922;2023-03-13T01:29:00;7.20;;;5.77;;
2404;SDS011;1213;43.206;27.922;2023-03-13T01:31:27;5.90;;;5.20;;
2404;SDS011;1213;43.206;27.922;2023-03-13T01:33:53;6.13;;;4.90;;
2404;SDS011;1213;43.206;27.922;2023-03-13T01:36:18;5.50;;;5.03;;
2404;SDS011;1213;43.206;27.922;2023-03-13T01:38:47;9.07;;;5.30;;
2404;SDS011;1213;43.206;27.922;2023-03-13T01:41:12;6.67;;;5.93;;
2404;SDS011;1213;43.206;27.922;2023-03-13T01:43:37;3.17;;;2.87;;
2404;SDS011;1213;43.206;27.922;2023-03-13T01:48:42;7.97;;;4.43;;
2404;SDS011;1213;43.206;27.922;2023-03-13T01:51:09;5.30;;;4.50;;
2404;SDS011;1213;43.206;27.922;2023-03-13T01:53:36;4.70;;;4.40;;
2404;SDS011;1213;43.206;27.922;2023-03-13T01:56:03;7.27;;;4.83;;
2404;SDS011;1213;43.206;27.922;2023-03-13T01:58:30;5.20;;;3.83;;
2404;SDS011;1213;43.206;27.922;2023-03-13T02:00:55;5.33;;;4.73;;
2404;SDS011;1213;43.206;27.922;2023-03-13T02:03:21;5.67;;;5.03;;
2404;SDS011;1213;43.206;27.922;2023-03-13T02:05:47;8.93;;;6.67;;
2404;SDS011;1213;43.206;27.922;2023-03-13T02:08:21;7.80;;;4.97;;
2404;SDS011;1213;43.206;27.922;2023-03-13T02:10:49;5.73;;;5.07;;
2404;SDS011;1213;43.206;27.922;2023-03-13T02:13:15;11.23;;;5.37;;
2404;SDS011;1213;43.206;27.922;2023-03-13T02:15:41;6.03;;;4.07;;
2404;SDS011;1213;43.206;27.922;2023-03-13T02:18:06;11.03;;;4.67;;
2404;SDS011;1213;43.206;27.922;2023-03-13T02:20:32;4.33;;;3.97;;
2404;SDS011;1213;43.206;27.922;2023-03-13T02:22:59;6.70;;;4.47;;
2404;SDS011;1213;43.206;27.922;2023-03-13T02:28:18;6.30;;;4.60;;
2404;SDS011;1213;43.206;27.922;2023-03-13T02:30:45;9.40;;;6.67;;
2404;SDS011;1213;43.206;27.922;2023-03-13T02:33:11;7.87;;;7.07;;
2404;SDS011;1213;43.206;27.922;2023-03-13T02:35:37;7.93;;;7.13;;
2404;SDS011;1213;43.206;27.922;2023-03-13T02:38:04;10.67;;;6.87;;
2404;SDS011;1213;43.206;27.922;2023-03-13T02:40:32;10.27;;;6.23;;
2404;SDS011;1213;43.206;27.922;2023-03-13T02:42:57;12.23;;;6.97;;
2404;SDS011;1213;43.206;27.922;2023-03-13T02:45:24;8.10;;;5.83;;
2404;SDS011;1213;43.206;27.922;2023-03-13T02:47:50;11.37;;;7.97;;
2404;SDS011;1213;43.206;27.922;2023-03-13T02:50:15;11.10;;;9.90;;
2404;SDS011;1213;43.206;27.922;2023-03-13T02:52:48;12.60;;;7.80;;
2404;SDS011;1213;43.206;27.922;2023-03-13T02:55:15;13.07;;;8.63;;
2404;SDS011;1213;43.206;27.922;2023-03-13T02:57:42;13.23;;;8.90;;
2404;SDS011;1213;43.206;27.922;2023-03-13T03:00:08;8.83;;;7.77;;
2404;SDS011;1213;43.206;27.922;2023-03-13T03:02:36;8.00;;;7.20;;
2404;SDS011;1213;43.206;27.922;2023-03-13T03:05:02;12.03;;;7.20;;
2404;SDS011;1213;43.206;27.922;2023-03-13T03:07:27;7.53;;;6.10;;
2404;SDS011;1213;43.206;27.922;2023-03-13T03:09:53;17.90;;;9.27;;
2404;SDS011;1213;43.206;27.922;2023-03-13T03:12:19;10.57;;;8.83;;
2404;SDS011;1213;43.206;27.922;2023-03-13T03:14:44;7.83;;;6.20;;
2404;SDS011;1213;43.206;27.922;2023-03-13T03:17:09;6.60;;;4.80;;
2404;SDS011;1213;43.206;27.922;2023-03-13T03:19:35;13.03;;;7.83;;
2404;SDS011;1213;43.206;27.922;2023-03-13T03:22:00;7.63;;;5.87;;
2404;SDS011;1213;43.206;27.922;2023-03-13T03:24:25;10.77;;;8.33;;
2404;SDS011;1213;43.206;27.922;2023-03-13T03:26:50;16.83;;;9.23;;
2404;SDS011;1213;43.206;27.922;2023-03-13T03:29:16;17.27;;;9.87;;
2404;SDS011;1213;43.206;27.922;2023-03-13T03:31:41;12.20;;;6.97;;
2404;SDS011;1213;43.206;27.922;2023-03-13T03:34:06;16.70;;;9.90;;
2404;SDS011;1213;43.206;27.922;2023-03-13T03:36:31;14.23;;;9.27;;
2404;SDS011;1213;43.206;27.922;2023-03-13T03:38:57;16.57;;;11.90;;
2404;SDS011;1213;43.206;27.922;2023-03-13T03:41:23;11.70;;;9.77;;
2404;SDS011;1213;43.206;27.922;2023-03-13T03:43:48;16.87;;;11.73;;
2404;SDS011;1213;43.206;27.922;2023-03-13T03:46:14;10.83;;;9.07;;
2404;SDS011;1213;43.206;27.922;2023-03-13T03:48:39;17.50;;;10.27;;
2404;SDS011;1213;43.206;27.922;2023-03-13T03:51:05;11.40;;;9.20;;
2404;SDS011;1213;43.206;27.922;2023-03-13T03:53:30;20.10;;;10.47;;
2404;SDS011;1213;43.206;27.922;2023-03-13T03:55:56;12.47;;;7.17;;
2404;SDS011;1213;43.206;27.922;2023-03-13T03:58:22;26.43;;;7.77;;
2404;SDS011;1213;43.206;27.922;2023-03-13T04:00:47;44.47;;;11.33;;
2404;SDS011;1213;43.206;27.922;2023-03-13T04:03:13;13.60;;;8.23;;
2404;SDS011;1213;43.206;27.922;2023-03-13T04:05:38;12.83;;;8.10;;
2404;SDS011;1213;43.206;27.922;2023-03-13T04:08:04;12.60;;;8.27;;
2404;SDS011;1213;43.206;27.922;2023-03-13T04:10:30;5.50;;;5.00;;
2404;SDS011;1213;43.206;27.922;2023-03-13T04:12:55;10.93;;;7.30;;
2404;SDS011;1213;43.206;27.922;2023-03-13T04:15:20;13.43;;;11.20;;
2404;SDS011;1213;43.206;27.922;2023-03-13T04:17:45;14.03;;;7.97;;
2404;SDS011;1213;43.206;27.922;2023-03-13T04:20:11;19.17;;;9.07;;
2404;SDS011;1213;43.206;27.922;2023-03-13T04:22:38;21.27;;;11.03;;
2404;SDS011;1213;43.206;27.922;2023-03-13T04:25:03;11.50;;;7.50;;
2404;SDS011;1213;43.206;27.922;2023-03-13T04:27:29;13.50;;;8.63;;
2404;SDS011;1213;43.206;27.922;2023-03-13T04:29:54;11.70;;;9.47;;
2404;SDS011;1213;43.206;27.922;2023-03-13T04:32:19;14.10;;;9.90;;
2404;SDS011;1213;43.206;27.922;2023-03-13T04:34:44;18.20;;;10.97;;
2404;SDS011;1213;43.206;27.922;2023-03-13T04:37:10;18.93;;;11.10;;
2404;SDS011;1213;43.206;27.922;2023-03-13T04:39:35;16.57;;;10.63;;
2404;SDS011;1213;43.206;27.922;2023-03-13T04:42:00;14.20;;;8.20;;
2404;SDS011;1213;43.206;27.922;2023-03-13T04:44:25;6.40;;;5.40;;
2404;SDS011;1213;43.206;27.922;2023-03-13T04:46:51;15.63;;;8.73;;
2404;SDS011;1213;43.206;27.922;2023-03-13T04:49:16;5.47;;;4.13;;
2404;SDS011;1213;43.206;27.922;2023-03-13T04:51:42;14.20;;;8.10;;
2404;SDS011;1213;43.206;27.922;2023-03-13T04:54:07;5.00;;;4.53;;
2404;SDS011;1213;43.206;27.922;2023-03-13T04:56:33;14.13;;;8.10;;
2404;SDS011;1213;43.206;27.922;2023-03-13T04:58:58;10.40;;;8.10;;
2404;SDS011;1213;43.206;27.922;2023-03-13T05:01:23;11.47;;;7.47;;
2404;SDS011;1213;43.206;27.922;2023-03-13T05:03:49;12.43;;;8.00;;
2404;SDS011;1213;43.206;27.922;2023-03-13T05:06:14;7.77;;;5.43;;
2404;SDS011;1213;43.206;27.922;2023-03-13T05:08:40;9.13;;;6.07;;
2404;SDS011;1213;43.206;27.922;2023-03-13T05:11:05;14.53;;;9.03;;
2404;SDS011;1213;43.206;27.922;2023-03-13T05:13:30;6.40;;;5.80;;
2404;SDS011;1213;43.206;27.922;2023-03-13T05:15:55;16.17;;;6.53;;
2404;SDS011;1213;43.206;27.922;2023-03-13T05:18:21;10.97;;;7.60;;
2404;SDS011;1213;43.206;27.922;2023-03-13T05:20:46;14.63;;;9.83;;
2404;SDS011;1213;43.206;27.922;2023-03-13T05:23:11;17.60;;;9.90;;
2404;SDS011;1213;43.206;27.922;2023-03-13T05:25:37;13.40;;;10.80;;
2404;SDS011;1213;43.206;27.922;2023-03-13T05:28:02;14.80;;;7.27;;
2404;SDS011;1213;43.206;27.922;2023-03-13T05:30:27;11.73;;;7.70;;
2404;SDS011;1213;43.206;27.922;2023-03-13T05:32:53;2.73;;;2.60;;
2404;SDS011;1213;43.206;27.922;2023-03-13T05:35:18;5.70;;;3.73;;
2404;SDS011;1213;43.206;27.922;2023-03-13T05:37:43;8.20;;;7.60;;
2404;SDS011;1213;43.206;27.922;2023-03-13T05:40:10;12.03;;;7.43;;
2404;SDS011;1213;43.206;27.922;2023-03-13T05:42:35;12.47;;;5.20;;
2404;SDS011;1213;43.206;27.922;2023-03-13T05:45:01;7.57;;;3.90;;
2404;SDS011;1213;43.206;27.922;2023-03-13T05:47:26;6.23;;;5.57;;
2404;SDS011;1213;43.206;27.922;2023-03-13T05:49:51;9.37;;;5.20;;
2404;SDS011;1213;43.206;27.922;2023-03-13T05:52:17;11.97;;;8.67;;
2404;SDS011;1213;43.206;27.922;2023-03-13T05:54:42;11.03;;;7.73;;
2404;SDS011;1213;43.206;27.922;2023-03-13T05:57:07;15.07;;;9.70;;
2404;SDS011;1213;43.206;27.922;2023-03-13T05:59:33;16.70;;;10.37;;
2404;SDS011;1213;43.206;27.922;2023-03-13T06:01:58;15.30;;;9.40;;
2404;SDS011;1213;43.206;27.922;2023-03-13T06:04:23;11.20;;;7.90;;
2404;SDS011;1213;43.206;27.922;2023-03-13T06:06:49;13.00;;;7.30;;
2404;SDS011;1213;43.206;27.922;2023-03-13T06:09:14;13.50;;;8.77;;
2404;SDS011;1213;43.206;27.922;2023-03-13T06:11:40;17.20;;;10.80;;
2404;SDS011;1213;43.206;27.922;2023-03-13T06:14:05;11.73;;;8.80;;
2404;SDS011;1213;43.206;27.922;2023-03-13T06:16:31;10.33;;;8.27;;
2404;SDS011;1213;43.206;27.922;2023-03-13T06:18:56;10.23;;;5.70;;
2404;SDS011;1213;43.206;27.922;2023-03-13T06:21:21;10.07;;;7.53;;
2404;SDS011;1213;43.206;27.922;2023-03-13T06:23:47;11.63;;;8.67;;
2404;SDS011;1213;43.206;27.922;2023-03-13T06:26:12;16.90;;;12.67;;
2404;SDS011;1213;43.206;27.922;2023-03-13T06:28:37;18.30;;;10.30;;
2404;SDS011;1213;43.206;27.922;2023-03-13T06:31:03;16.40;;;13.23;;
2404;SDS011;1213;43.206;27.922;2023-03-13T06:33:29;19.50;;;13.03;;
2404;SDS011;1213;43.206;27.922;2023-03-13T06:35:55;20.13;;;10.93;;
2404;SDS011;1213;43.206;27.922;2023-03-13T06:38:20;22.17;;;12.57;;
2404;SDS011;1213;43.206;27.922;2023-03-13T06:40:46;17.90;;;13.10;;
2404;SDS011;1213;43.206;27.922;2023-03-13T06:43:11;18.20;;;13.07;;
2404;SDS011;1213;43.206;27.922;2023-03-13T06:45:36;8.93;;;6.77;;
2404;SDS011;1213;43.206;27.922;2023-03-13T06:48:02;23.50;;;14.97;;
2404;SDS011;1213;43.206;27.922;2023-03-13T06:50:27;32.57;;;14.63;;
2404;SDS011;1213;43.206;27.922;2023-03-13T06:52:53;14.27;;;8.80;;
2404;SDS011;1213;43.206;27.922;2023-03-13T06:55:18;23.07;;;12.57;;
2404;SDS011;1213;43.206;27.922;2023-03-13T06:57:43;19.77;;;13.00;;
2404;SDS011;1213;43.206;27.922;2023-03-13T07:00:12;8.13;;;7.43;;
2404;SDS011;1213;43.206;27.922;2023-03-13T07:02:37;12.67;;;8.30;;
2404;SDS011;1213;43.206;27.922;2023-03-13T07:05:02;29.20;;;14.20;;
2404;SDS011;1213;43.206;27.922;2023-03-13T07:07:30;20.93;;;12.90;;
2404;SDS011;1213;43.206;27.922;2023-03-13T07:09:57;13.97;;;11.40;;
2404;SDS011;1213;43.206;27.922;2023-03-13T07:12:22;12.47;;;9.77;;
2404;SDS011;1213;43.206;27.922;2023-03-13T07:14:47;16.57;;;8.77;;
2404;SDS011;1213;43.206;27.922;2023-03-13T07:17:12;21.30;;;15.23;;
2404;SDS011;1213;43.206;27.922;2023-03-13T07:19:38;18.10;;;12.50;;
2404;SDS011;1213;43.206;27.922;2023-03-13T07:22:03;16.50;;;11.10;;
2404;SDS011;1213;43.206;27.922;2023-03-13T07:24:28;15.27;;;10.10;;
2404;SDS011;1213;43.206;27.922;2023-03-13T07:26:53;15.80;;;10.83;;
2404;SDS011;1213;43.206;27.922;2023-03-13T07:29:19;9.60;;;8.20;;
2404;SDS011;1213;43.206;27.922;2023-03-13T07:31:44;15.90;;;7.37;;
2404;SDS011;1213;43.206;27.922;2023-03-13T07:34:09;11.20;;;8.30;;
2404;SDS011;1213;43.206;27.922;2023-03-13T07:36:34;10.03;;;5.63;;
2404;SDS011;1213;43.206;27.922;2023-03-13T07:39:00;7.97;;;5.80;;
2404;SDS011;1213;43.206;27.922;2023-03-13T07:41:25;5.57;;;5.07;;
2404;SDS011;1213;43.206;27.922;2023-03-13T07:43:50;6.67;;;5.87;;
2404;SDS011;1213;43.206;27.922;2023-03-13T07:46:16;10.97;;;6.07;;
2404;SDS011;1213;43.206;27.922;2023-03-13T07:48:45;6.87;;;5.20;;
2404;SDS011;1213;43.206;27.922;2023-03-13T07:51:12;6.50;;;5.73;;
2404;SDS011;1213;43.206;27.922;2023-03-13T07:53:38;16.63;;;6.10;;
2404;SDS011;1213;43.206;27.922;2023-03-13T07:56:04;7.63;;;6.50;;
2404;SDS011;1213;43.206;27.922;2023-03-13T07:58:31;10.07;;;6.93;;
2404;SDS011;1213;43.206;27.922;2023-03-13T08:00:56;9.97;;;8.10;;
2404;SDS011;1213;43.206;27.922;2023-03-13T08:03:22;15.93;;;9.23;;
2404;SDS011;1213;43.206;27.922;2023-03-13T08:05:56;12.30;;;8.13;;
2404;SDS011;1213;43.206;27.922;2023-03-13T08:08:21;12.73;;;8.73;;
2404;SDS011;1213;43.206;27.922;2023-03-13T08:10:46;8.90;;;6.57;;
2404;SDS011;1213;43.206;27.922;2023-03-13T08:13:12;15.57;;;8.10;;
2404;SDS011;1213;43.206;27.922;2023-03-13T08:15:37;10.00;;;8.00;;
2404;SDS011;1213;43.206;27.922;2023-03-13T08:18:02;10.90;;;6.53;;
2404;SDS011;1213;43.206;27.922;2023-03-13T08:20:27;4.60;;;3.90;;
2404;SDS011;1213;43.206;27.922;2023-03-13T08:22:54;2.30;;;1.93;;
2404;SDS011;1213;43.206;27.922;2023-03-13T08:25:19;2.53;;;2.33;;
2404;SDS011;1213;43.206;27.922;2023-03-13T08:27:44;2.63;;;2.17;;
2404;SDS011;1213;43.206;27.922;2023-03-13T08:30:10;5.07;;;2.67;;
2404;SDS011;1213;43.206;27.922;2023-03-13T08:32:35;3.40;;;2.00;;
2404;SDS011;1213;43.206;27.922;2023-03-13T08:35:00;3.63;;;2.20;;
2404;SDS011;1213;43.206;27.922;2023-03-13T08:37:26;1.67;;;1.57;;
2404;SDS011;1213;43.206;27.922;2023-03-13T08:39:51;1.70;;;1.60;;
2404;SDS011;1213;43.206;27.922;2023-03-13T08:42:18;2.17;;;1.40;;
2404;SDS011;1213;43.206;27.922;2023-03-13T08:44:43;2.60;;;1.30;;
2404;SDS011;1213;43.206;27.922;2023-03-13T08:47:08;2.13;;;1.20;;
2404;SDS011;1213;43.206;27.922;2023-03-13T08:49:34;1.60;;;1.50;;
2404;SDS011;1213;43.206;27.922;2023-03-13T08:51:59;4.40;;;2.10;;
2404;SDS011;1213;43.206;27.922;2023-03-13T08:54:25;3.10;;;1.30;;
2404;SDS011;1213;43.206;27.922;2023-03-13T08:56:50;3.30;;;1.83;;
2404;SDS011;1213;43.206;27.922;2023-03-13T08:59:15;3.30;;;2.03;;
2404;SDS011;1213;43.206;27.922;2023-03-13T09:01:40;2.20;;;1.47;;
2404;SDS011;1213;43.206;27.922;2023-03-13T09:04:06;2.30;;;1.13;;
2404;SDS011;1213;43.206;27.922;2023-03-13T09:06:32;1.50;;;1.40;;
2404;SDS011;1213;43.206;27.922;2023-03-13T09:08:57;2.13;;;1.57;;
2404;SDS011;1213;43.206;27.922;2023-03-13T09:11:23;1.70;;;1.60;;
2404;SDS011;1213;43.206;27.922;2023-03-13T09:13:48;3.77;;;3.40;;
2404;SDS011;1213;43.206;27.922;2023-03-13T09:16:18;2.10;;;1.90;;
2404;SDS011;1213;43.206;27.922;2023-03-13T09:18:43;1.63;;;1.53;;
2404;SDS011;1213;43.206;27.922;2023-03-13T09:21:11;2.40;;;2.10;;
2404;SDS011;1213;43.206;27.922;2023-03-13T09:23:36;2.80;;;2.53;;
2404;SDS011;1213;43.206;27.922;2023-03-13T09:26:02;2.40;;;2.20;;
2404;SDS011;1213;43.206;27.922;2023-03-13T09:28:28;1.77;;;1.63;;
2404;SDS011;1213;43.206;27.922;2023-03-13T09:30:53;3.67;;;2.23;;
2404;SDS011;1213;43.206;27.922;2023-03-13T09:33:19;2.13;;;1.80;;
2404;SDS011;1213;43.206;27.922;2023-03-13T09:35:45;2.47;;;2.00;;
2404;SDS011;1213;43.206;27.922;2023-03-13T09:38:15;1.80;;;1.70;;
2404;SDS011;1213;43.206;27.922;2023-03-13T09:40:40;2.40;;;2.20;;
2404;SDS011;1213;43.206;27.922;2023-03-13T09:43:15;2.40;;;2.03;;
2404;SDS011;1213;43.206;27.922;2023-03-13T09:45:42;2.00;;;1.80;;
2404;SDS011;1213;43.206;27.922;2023-03-13T09:48:32;3.00;;;2.60;;
2404;SDS011;1213;43.206;27.922;2023-03-13T09:53:45;3.00;;;2.63;;
2404;SDS011;1213;43.206;27.922;2023-03-13T09:56:16;2.17;;;2.03;;
2404;SDS011;1213;43.206;27.922;2023-03-13T09:58:58;4.03;;;1.93;;
2404;SDS011;1213;43.206;27.922;2023-03-13T10:01:29;3.03;;;2.73;;
2404;SDS011;1213;43.206;27.922;2023-03-13T10:06:24;9.33;;;2.00;;
2404;SDS011;1213;43.206;27.922;2023-03-13T10:08:49;2.33;;;1.50;;
2404;SDS011;1213;43.206;27.922;2023-03-13T10:11:27;1.43;;;1.33;;
2404;SDS011;1213;43.206;27.922;2023-03-13T10:18:47;1.10;;;0.80;;
2404;SDS011;1213;43.206;27.922;2023-03-13T10:21:17;2.93;;;1.30;;
2404;SDS011;1213;43.206;27.922;2023-03-13T10:23:45;2.40;;;1.10;;
2404;SDS011;1213;43.206;27.922;2023-03-13T10:26:15;1.33;;;1.20;;
2404;SDS011;1213;43.206;27.922;2023-03-13T10:28:44;3.03;;;1.47;;
2404;SDS011;1213;43.206;27.922;2023-03-13T10:31:13;3.33;;;1.17;;
2404;SDS011;1213;43.206;27.922;2023-03-13T10:33:41;1.23;;;1.10;;
2404;SDS011;1213;43.206;27.922;2023-03-13T10:36:10;1.80;;;1.30;;
2404;SDS011;1213;43.206;27.922;2023-03-13T10:38:49;1.57;;;1.33;;
2404;SDS011;1213;43.206;27.922;2023-03-13T10:41:20;1.23;;;1.07;;
2404;SDS011;1213;43.206;27.922;2023-03-13T10:43:52;1.60;;;1.20;;
2404;SDS011;1213;43.206;27.922;2023-03-13T10:46:27;1.43;;;1.20;;
2404;SDS011;1213;43.206;27.922;2023-03-13T10:48:56;1.30;;;1.20;;
2404;SDS011;1213;43.206;27.922;2023-03-13T10:51:24;3.07;;;1.80;;
2404;SDS011;1213;43.206;27.922;2023-03-13T10:53:55;1.30;;;1.10;;
2404;SDS011;1213;43.206;27.922;2023-03-13T10:56:30;1.20;;;1.10;;
2404;SDS011;1213;43.206;27.922;2023-03-13T10:58:55;1.33;;;1.23;;
2404;SDS011;1213;43.206;27.922;2023-03-13T11:03:47;3.60;;;1.70;;
2404;SDS011;1213;43.206;27.922;2023-03-13T11:06:45;1.57;;;1.40;;
2404;SDS011;1213;43.206;27.922;2023-03-13T11:09:11;2.60;;;2.40;;
2404;SDS011;1213;43.206;27.922;2023-03-13T11:11:50;1.40;;;1.00;;
2404;SDS011;1213;43.206;27.922;2023-03-13T11:14:20;1.83;;;1.40;;
2404;SDS011;1213;43.206;27.922;2023-03-13T11:22:28;1.60;;;1.20;;
2404;SDS011;1213;43.206;27.922;2023-03-13T11:32:41;1.43;;;1.33;;
2404;SDS011;1213;43.206;27.922;2023-03-13T11:37:42;2.40;;;1.20;;
2404;SDS011;1213;43.206;27.922;2023-03-13T11:40:15;1.33;;;1.20;;
2404;SDS011;1213;43.206;27.922;2023-03-13T11:42:48;2.03;;;1.83;;
2404;SDS011;1213;43.206;27.922;2023-03-13T11:50:36;4.70;;;1.50;;
2404;SDS011;1213;43.206;27.922;2023-03-13T12:03:05;1.70;;;1.50;;
2404;SDS011;1213;43.206;27.922;2023-03-13T12:05:40;1.63;;;1.43;;
2404;SDS011;1213;43.206;27.922;2023-03-13T12:08:18;3.80;;;1.47;;
2404;SDS011;1213;43.206;27.922;2023-03-13T12:10:50;1.57;;;1.13;;
2404;SDS011;1213;43.206;27.922;2023-03-13T12:13:20;3.20;;;2.90;;
2404;SDS011;1213;43.206;27.922;2023-03-13T12:15:51;9.73;;;5.63;;
2404;SDS011;1213;43.206;27.922;2023-03-13T12:20:55;3.37;;;1.57;;
2404;SDS011;1213;43.206;27.922;2023-03-13T12:34:49;1.73;;;1.63;;
2404;SDS011;1213;43.206;27.922;2023-03-13T12:40:15;6.70;;;1.30;;
2404;SDS011;1213;43.206;27.922;2023-03-13T12:45:16;2.20;;;1.27;;
2404;SDS011;1213;43.206;27.922;2023-03-13T12:53:08;3.00;;;1.80;;
2404;SDS011;1213;43.206;27.922;2023-03-13T13:00:55;1.20;;;1.03;;
2404;SDS011;1213;43.206;27.922;2023-03-13T13:08:37;3.23;;;1.83;;
2404;SDS011;1213;43.206;27.922;2023-03-13T13:11:48;5.10;;;2.00;;
2404;SDS011;1213;43.206;27.922;2023-03-13T13:13:48;4.80;;;1.40;;
2404;SDS011;1213;43.206;27.922;2023-03-13T13:16:16;3.90;;;1.70;;
2404;SDS011;1213;43.206;27.922;2023-03-13T13:18:42;4.10;;;2.23;;
2404;SDS011;1213;43.206;27.922;2023-03-13T13:23:39;2.90;;;1.77;;
2404;SDS011;1213;43.206;27.922;2023-03-13T13:28:51;1.50;;;1.20;;
2404;SDS011;1213;43.206;27.922;2023-03-13T13:36:57;1.40;;;1.30;;
2404;SDS011;1213;43.206;27.922;2023-03-13T13:39:39;2.67;;;1.40;;
2404;SDS011;1213;43.206;27.922;2023-03-13T13:44:57;3.47;;;1.60;;
2404;SDS011;1213;43.206;27.922;2023-03-13T13:47:27;3.20;;;2.90;;
2404;SDS011;1213;43.206;27.922;2023-03-13T13:49:53;3.03;;;1.37;;
2404;SDS011;1213;43.206;27.922;2023-03-13T13:52:31;4.40;;;1.70;;
2404;SDS011;1213;43.206;27.922;2023-03-13T13:54:56;2.40;;;1.97;;
2404;SDS011;1213;43.206;27.922;2023-03-13T13:57:26;3.67;;;1.60;;
2404;SDS011;1213;43.206;27.922;2023-03-13T14:00:14;3.47;;;1.23;;
2404;SDS011;1213;43.206;27.922;2023-03-13T14:02:58;2.03;;;1.40;;
2404;SDS011;1213;43.206;27.922;2023-03-13T14:05:27;1.90;;;1.30;;
2404;SDS011;1213;43.206;27.922;2023-03-13T14:07:59;1.43;;;1.30;;
2404;SDS011;1213;43.206;27.922;2023-03-13T14:10:40;2.20;;;1.40;;
2404;SDS011;1213;43.206;27.922;2023-03-13T14:13:10;2.30;;;1.23;;
2404;SDS011;1213;43.206;27.922;2023-03-13T14:15:36;1.30;;;1.20;;
2404;SDS011;1213;43.206;27.922;2023-03-13T14:18:13;2.20;;;1.20;;
2404;SDS011;1213;43.206;27.922;2023-03-13T14:23:40;2.20;;;1.67;;
2404;SDS011;1213;43.206;27.922;2023-03-13T14:28:34;2.13;;;1.50;;
2404;SDS011;1213;43.206;27.922;2023-03-13T14:30:59;2.23;;;1.17;;
2404;SDS011;1213;43.206;27.922;2023-03-13T14:33:25;2.87;;;1.60;;
2404;SDS011;1213;43.206;27.922;2023-03-13T14:35:53;1.07;;;0.93;;
2404;SDS011;1213;43.206;27.922;2023-03-13T14:38:23;2.25;;;1.70;;
2404;SDS011;1213;43.206;27.922;2023-03-13T14:40:49;1.70;;;1.20;;
2404;SDS011;1213;43.206;27.922;2023-03-13T14:43:31;1.33;;;1.00;;
2404;SDS011;1213;43.206;27.922;2023-03-13T14:46:17;1.57;;;1.47;;
2404;SDS011;1213;43.206;27.922;2023-03-13T14:48:45;1.50;;;1.40;;
2404;SDS011;1213;43.206;27.922;2023-03-13T14:51:16;1.60;;;1.43;;
2404;SDS011;1213;43.206;27.922;2023-03-13T14:53:57;4.43;;;2.17;;
2404;SDS011;1213;43.206;27.922;2023-03-13T14:56:36;2.97;;;2.40;;
2404;SDS011;1213;43.206;27.922;2023-03-13T14:59:44;6.40;;;5.00;;
2404;SDS011;1213;43.206;27.922;2023-03-13T15:02:01;1.80;;;1.50;;
2404;SDS011;1213;43.206;27.922;2023-03-13T15:04:46;1.80;;;1.20;;
2404;SDS011;1213;43.206;27.922;2023-03-13T15:07:11;1.40;;;1.17;;
2404;SDS011;1213;43.206;27.922;2023-03-13T15:09:40;1.50;;;1.27;;
2404;SDS011;1213;43.206;27.922;2023-03-13T15:12:10;2.57;;;1.17;;
2404;SDS011;1213;43.206;27.922;2023-03-13T15:14:41;1.80;;;1.10;;
2404;SDS011;1213;43.206;27.922;2023-03-13T15:19:38;1.13;;;1.03;;
2404;SDS011;1213;43.206;27.922;2023-03-13T15:22:03;1.40;;;1.30;;
2404;SDS011;1213;43.206;27.922;2023-03-13T15:24:29;1.17;;;1.07;;
2404;SDS011;1213;43.206;27.922;2023-03-13T15:26:54;2.13;;;1.30;;
2404;SDS011;1213;43.206;27.922;2023-03-13T15:29:19;1.60;;;1.10;;
2404;SDS011;1213;43.206;27.922;2023-03-13T15:31:45;1.33;;;1.23;;
2404;SDS011;1213;43.206;27.922;2023-03-13T15:34:13;1.60;;;1.50;;
2404;SDS011;1213;43.206;27.922;2023-03-13T15:36:39;2.13;;;1.23;;
2404;SDS011;1213;43.206;27.922;2023-03-13T15:39:09;1.53;;;1.23;;
2404;SDS011;1213;43.206;27.922;2023-03-13T15:41:34;2.90;;;1.60;;
2404;SDS011;1213;43.206;27.922;2023-03-13T15:44:00;10.70;;;7.70;;
2404;SDS011;1213;43.206;27.922;2023-03-13T15:46:25;1.67;;;1.33;;
2404;SDS011;1213;43.206;27.922;2023-03-13T15:48:51;1.07;;;0.97;;
2404;SDS011;1213;43.206;27.922;2023-03-13T15:51:18;2.63;;;1.50;;
2404;SDS011;1213;43.206;27.922;2023-03-13T15:53:44;1.87;;;1.23;;
2404;SDS011;1213;43.206;27.922;2023-03-13T15:56:17;1.80;;;1.70;;
2404;SDS011;1213;43.206;27.922;2023-03-13T15:58:43;2.30;;;1.67;;
2404;SDS011;1213;43.206;27.922;2023-03-13T16:01:09;1.60;;;1.50;;
2404;SDS011;1213;43.206;27.922;2023-03-13T16:03:35;7.63;;;1.43;;
2404;SDS011;1213;43.206;27.922;2023-03-13T16:06:00;1.87;;;1.20;;
2404;SDS011;1213;43.206;27.922;2023-03-13T16:08:26;3.40;;;1.47;;
2404;SDS011;1213;43.206;27.922;2023-03-13T16:10:52;1.30;;;0.90;;
2404;SDS011;1213;43.206;27.922;2023-03-13T16:13:17;1.33;;;1.23;;
2404;SDS011;1213;43.206;27.922;2023-03-13T16:15:43;1.30;;;1.20;;
2404;SDS011;1213;43.206;27.922;2023-03-13T16:18:12;1.17;;;1.00;;
2404;SDS011;1213;43.206;27.922;2023-03-13T16:20:39;2.60;;;1.97;;
2404;SDS011;1213;43.206;27.922;2023-03-13T16:23:05;5.70;;;2.80;;
2404;SDS011;1213;43.206;27.922;2023-03-13T16:25:30;2.10;;;1.50;;
2404;SDS011;1213;43.206;27.922;2023-03-13T16:27:56;5.90;;;4.43;;
2404;SDS011;1213;43.206;27.922;2023-03-13T16:32:47;6.83;;;2.10;;
2404;SDS011;1213;43.206;27.922;2023-03-13T16:35:12;3.87;;;1.90;;
2404;SDS011;1213;43.206;27.922;2023-03-13T16:37:38;1.33;;;1.23;;
2404;SDS011;1213;43.206;27.922;2023-03-13T16:40:10;1.63;;;1.27;;
2404;SDS011;1213;43.206;27.922;2023-03-13T16:42:36;1.50;;;1.40;;
2404;SDS011;1213;43.206;27.922;2023-03-13T16:45:01;1.67;;;1.40;;
2404;SDS011;1213;43.206;27.922;2023-03-13T16:47:27;2.13;;;1.93;;